首页
METAR-TAF:

METAR-TAF

机场 :

Beaufort, 南卡罗来纳州, 美国

纬度: 32-29-37N, 经度: 080-42-11W, 海拔: 11米

当前天气观测

该预报发布于1小时和5分钟前的00:56 UTC
风速10节,风向东北,有时为15节阵风
温度 9°C
湿度 81%
气压 1033 hPa
能見度: 16.1公里
阴天层高于1500英尺

METAR: KNBC 230056Z 05010G15KT 10SM OVC015 09/06 A3050 RMK AO2 SLP329 T00890061 $

时间: 21:01 (02:01 UTC)

预报

预报有效从22日的 23点(UTC)到 23日的 21点(UTC)
风速10节,风向,有时为18节阵风
能见度10公里或以上
多云层高于1500英尺
成为
从 23日的 06点(UTC)到 23日的 08点(UTC)
风速10节,风向东转东南
能见度10公里或以上
多云层高于3000英尺
多云层高于6000英尺

TAF: KNBC 2223/2321 08010G18KT 9999 BKN015 QNH3035INS BECMG 2306/2308 12010KT 9999 BKN030 BKN060 QNH3012INS T07/2303Z T15/2319Z AMD 2300Z

超过4000个机场的气象观测和天气预报(METAR&TAF报告)。

可查询的气象台以黄色和红色小点在地图上表示。

将鼠标移到小点上方,可查看气象台名称。

然后点击查看天气观测和预报。

如需切换地图:点击带黑十字的绿色按钮放大地图;点击带横线的绿色按钮缩小地图;或者点击绿色箭头查看邻近地区的地图。


METAR-TAF: